createdAt,value
2023-02-24T00:00:36.635Z,6.76
2023-02-24T00:01:36.583Z,6.73
2023-02-24T00:02:36.618Z,6.75
2023-02-24T00:03:36.691Z,6.75
2023-02-24T00:04:36.562Z,6.73
2023-02-24T00:05:36.531Z,6.75
2023-02-24T00:06:36.552Z,6.73
2023-02-24T00:07:36.674Z,6.72
2023-02-24T00:08:36.586Z,6.75
2023-02-24T00:09:36.497Z,6.73
2023-02-24T00:10:36.519Z,6.73
2023-02-24T00:11:36.500Z,6.73
2023-02-24T00:12:36.491Z,6.75
2023-02-24T00:13:36.429Z,6.73
2023-02-24T00:14:36.572Z,6.71
2023-02-24T00:15:36.405Z,6.71
2023-02-24T00:16:36.610Z,6.72
2023-02-24T00:17:36.372Z,6.73
2023-02-24T00:18:36.370Z,6.72
2023-02-24T00:19:36.361Z,6.73
2023-02-24T00:20:36.386Z,6.72
2023-02-24T00:21:36.327Z,6.68
2023-02-24T00:22:36.317Z,6.64
2023-02-24T00:23:36.294Z,6.64
2023-02-24T00:24:36.366Z,6.65
2023-02-24T00:25:36.283Z,6.65
2023-02-24T00:26:36.264Z,6.65
2023-02-24T00:27:36.252Z,6.63
2023-02-24T00:28:36.232Z,6.64
2023-02-24T00:29:36.224Z,6.63
2023-02-24T00:30:36.283Z,6.63
2023-02-24T00:31:36.523Z,6.63
2023-02-24T00:32:36.384Z,6.61
2023-02-24T00:33:36.171Z,6.61
2023-02-24T00:34:36.296Z,6.61
2023-02-24T00:35:36.155Z,6.61
2023-02-24T00:36:36.179Z,6.61
2023-02-24T00:37:36.140Z,6.61
2023-02-24T00:38:36.107Z,6.60
2023-02-24T00:39:36.132Z,6.60
2023-02-24T00:40:36.090Z,6.57
2023-02-24T00:41:36.142Z,6.58
2023-02-24T00:42:36.202Z,6.57
2023-02-24T00:43:36.121Z,6.57
2023-02-24T00:44:36.082Z,6.48
2023-02-24T00:45:36.142Z,6.36
2023-02-24T00:46:36.217Z,6.32
2023-02-24T00:47:36.046Z,6.25
2023-02-24T00:48:36.231Z,6.24
2023-02-24T00:49:36.145Z,6.17
2023-02-24T00:50:35.956Z,6.16
2023-02-24T00:51:35.942Z,6.14
2023-02-24T00:52:35.945Z,6.08
2023-02-24T00:53:35.932Z,6.06
2023-02-24T00:54:35.917Z,6.02
2023-02-24T00:55:35.994Z,6.01
2023-02-24T00:56:35.886Z,5.95
2023-02-24T00:57:35.861Z,5.92
2023-02-24T00:58:35.888Z,5.93
2023-02-24T00:59:35.947Z,5.87
2023-02-24T01:00:35.842Z,5.78
2023-02-24T01:01:35.979Z,5.77
2023-02-24T01:02:35.797Z,5.73
2023-02-24T01:03:35.802Z,5.67
2023-02-24T01:04:35.785Z,5.65
2023-02-24T01:05:35.778Z,5.63
2023-02-24T01:06:35.777Z,5.63
2023-02-24T01:07:35.743Z,5.63
2023-02-24T01:08:35.745Z,5.62
2023-02-24T01:09:35.756Z,5.59
2023-02-24T01:10:35.713Z,5.58
2023-02-24T01:11:35.739Z,5.55
2023-02-24T01:12:35.697Z,5.52
2023-02-24T01:13:35.736Z,5.52
2023-02-24T01:14:35.671Z,5.55
2023-02-24T01:15:35.650Z,5.51
2023-02-24T01:16:35.673Z,5.48
2023-02-24T01:17:35.615Z,5.48
2023-02-24T01:18:35.620Z,5.48
2023-02-24T01:19:35.599Z,5.47
2023-02-24T01:20:35.588Z,5.45
2023-02-24T01:21:35.574Z,5.42
2023-02-24T01:22:35.555Z,5.41
2023-02-24T01:23:35.540Z,5.41
2023-02-24T01:24:35.539Z,5.44
2023-02-24T01:25:35.570Z,5.44
2023-02-24T01:26:35.520Z,5.41
2023-02-24T01:27:35.487Z,5.37
2023-02-24T01:28:35.484Z,5.37
2023-02-24T01:29:35.688Z,5.33
2023-02-24T01:30:35.483Z,5.35
2023-02-24T01:31:35.624Z,5.32
2023-02-24T01:32:35.756Z,5.30
2023-02-24T01:33:35.427Z,5.29
2023-02-24T01:34:35.423Z,5.27
2023-02-24T01:35:35.413Z,5.24
2023-02-24T01:36:35.405Z,5.23
2023-02-24T01:37:35.422Z,5.23
2023-02-24T01:38:35.366Z,5.22
2023-02-24T01:39:35.333Z,5.17
2023-02-24T01:40:35.325Z,5.19
2023-02-24T01:41:35.326Z,5.20
2023-02-24T01:42:35.307Z,5.20
2023-02-24T01:43:35.285Z,5.17
2023-02-24T01:44:35.286Z,5.11
2023-02-24T01:45:35.276Z,5.06
2023-02-24T01:46:35.380Z,5.02
2023-02-24T01:47:35.250Z,5.01
2023-02-24T01:48:35.224Z,4.97
2023-02-24T01:49:35.244Z,4.94
2023-02-24T01:50:35.224Z,4.93
2023-02-24T01:51:35.187Z,4.90
2023-02-24T01:52:35.194Z,4.90
2023-02-24T01:53:35.165Z,4.88
2023-02-24T01:54:35.156Z,4.84
2023-02-24T01:55:35.138Z,4.80
2023-02-24T01:56:35.142Z,4.80
2023-02-24T01:57:35.136Z,4.79
2023-02-24T01:58:35.151Z,4.80
2023-02-24T01:59:35.093Z,4.84
2023-02-24T02:00:35.074Z,4.84
2023-02-24T02:01:35.181Z,4.83
2023-02-24T02:02:35.192Z,4.77
2023-02-24T02:03:35.068Z,4.77
2023-02-24T02:04:35.035Z,4.72
2023-02-24T02:05:35.010Z,4.69
2023-02-24T02:06:35.022Z,4.69
2023-02-24T02:07:35.013Z,4.62
2023-02-24T02:08:35.093Z,4.61
2023-02-24T02:09:34.967Z,4.56
2023-02-24T02:10:34.977Z,4.56
2023-02-24T02:11:34.950Z,4.54
2023-02-24T02:12:34.938Z,4.56
2023-02-24T02:13:35.153Z,4.54
2023-02-24T02:14:34.911Z,4.54
2023-02-24T02:15:34.914Z,4.50
2023-02-24T02:16:35.078Z,4.49
2023-02-24T02:17:34.861Z,4.47
2023-02-24T02:18:34.933Z,4.46
2023-02-24T02:19:34.910Z,4.43
2023-02-24T02:20:34.837Z,4.42
2023-02-24T02:21:34.810Z,4.43
2023-02-24T02:22:34.877Z,4.43
2023-02-24T02:23:34.861Z,4.42
2023-02-24T02:24:34.785Z,4.42
2023-02-24T02:25:34.767Z,4.43
2023-02-24T02:26:34.828Z,4.42
2023-02-24T02:27:34.748Z,4.39
2023-02-24T02:28:34.839Z,4.39
2023-02-24T02:29:34.721Z,4.36
2023-02-24T02:30:34.745Z,4.36
2023-02-24T02:31:34.839Z,4.36
2023-02-24T02:32:34.867Z,4.36
2023-02-24T02:33:34.645Z,4.35
2023-02-24T02:34:34.664Z,4.32
2023-02-24T02:35:34.637Z,4.29
2023-02-24T02:36:34.662Z,4.29
2023-02-24T02:37:34.756Z,4.31
2023-02-24T02:38:34.606Z,4.26
2023-02-24T02:39:34.585Z,4.24
2023-02-24T02:40:34.610Z,4.20
2023-02-24T02:41:34.583Z,4.18
2023-02-24T02:42:34.644Z,4.13
2023-02-24T02:43:34.531Z,4.08
2023-02-24T02:44:34.572Z,4.07
2023-02-24T02:45:35.035Z,4.07
2023-02-24T02:46:34.729Z,4.08
2023-02-24T02:47:34.499Z,4.10
2023-02-24T02:48:34.577Z,4.11
2023-02-24T02:49:34.445Z,4.14
2023-02-24T02:50:34.458Z,4.14
2023-02-24T02:51:34.516Z,4.13
2023-02-24T02:52:34.467Z,4.07
2023-02-24T02:53:34.407Z,4.06
2023-02-24T02:54:34.396Z,4.04
2023-02-24T02:55:34.375Z,4.06
2023-02-24T02:56:34.380Z,4.06
2023-02-24T02:57:34.432Z,4.06
2023-02-24T02:58:34.442Z,4.04
2023-02-24T02:59:34.324Z,4.04
2023-02-24T03:00:34.322Z,4.06
2023-02-24T03:01:34.350Z,4.00
2023-02-24T03:02:34.282Z,4.04
2023-02-24T03:03:34.296Z,4.02
2023-02-24T03:04:34.307Z,4.02
2023-02-24T03:05:34.284Z,4.02
2023-02-24T03:06:35.201Z,4.02
2023-02-24T03:07:34.231Z,4.04
2023-02-24T03:08:34.247Z,4.04
2023-02-24T03:09:41.239Z,4.04
2023-02-24T03:10:34.190Z,4.04
2023-02-24T03:11:34.187Z,4.02
2023-02-24T03:12:34.155Z,4.02
2023-02-24T03:13:34.160Z,4.04
2023-02-24T03:14:34.124Z,4.04
2023-02-24T03:15:34.171Z,4.02
2023-02-24T03:16:34.162Z,4.02
2023-02-24T03:17:34.111Z,4.06
2023-02-24T03:18:34.115Z,4.06
2023-02-24T03:19:34.088Z,4.06
2023-02-24T03:20:34.091Z,4.00
2023-02-24T03:21:34.068Z,3.99
2023-02-24T03:22:34.030Z,3.96
2023-02-24T03:23:34.038Z,3.95
2023-02-24T03:24:34.016Z,3.96
2023-02-24T03:25:34.012Z,3.96
2023-02-24T03:26:34.011Z,3.98
2023-02-24T03:27:34.001Z,3.96
2023-02-24T03:28:33.968Z,3.95
2023-02-24T03:29:33.961Z,3.93
2023-02-24T03:30:33.953Z,3.96
2023-02-24T03:31:34.000Z,3.96
2023-02-24T03:32:34.062Z,3.95
2023-02-24T03:33:33.916Z,3.92
2023-02-24T03:34:33.883Z,3.90
2023-02-24T03:35:33.933Z,3.89
2023-02-24T03:36:33.943Z,3.86
2023-02-24T03:37:33.872Z,3.82
2023-02-24T03:38:33.861Z,3.82
2023-02-24T03:39:33.831Z,3.81
2023-02-24T03:40:33.831Z,3.81
2023-02-24T03:41:33.806Z,3.80
2023-02-24T03:42:33.778Z,3.81
2023-02-24T03:43:33.855Z,3.81
2023-02-24T03:44:33.779Z,3.81
2023-02-24T03:45:33.761Z,3.81
2023-02-24T03:46:33.736Z,3.80
2023-02-24T03:47:33.725Z,3.82
2023-02-24T03:48:33.700Z,3.82
2023-02-24T03:49:33.736Z,3.82
2023-02-24T03:50:33.711Z,3.81
2023-02-24T03:51:33.680Z,3.84
2023-02-24T03:52:33.677Z,3.86
2023-02-24T03:53:33.656Z,3.89
2023-02-24T03:54:33.642Z,3.90
2023-02-24T03:55:33.643Z,3.92
2023-02-24T03:56:33.670Z,3.92
2023-02-24T03:57:33.635Z,3.92
2023-02-24T03:58:33.650Z,3.89
2023-02-24T03:59:33.613Z,3.88
2023-02-24T04:00:33.577Z,3.89
2023-02-24T04:01:33.595Z,3.89
2023-02-24T04:02:33.582Z,3.88
2023-02-24T04:03:33.518Z,3.84
2023-02-24T04:04:33.554Z,3.86
2023-02-24T04:05:33.500Z,3.86
2023-02-24T04:06:33.534Z,3.86
2023-02-24T04:07:33.492Z,3.84
2023-02-24T04:08:33.454Z,3.80
2023-02-24T04:09:33.466Z,3.82
2023-02-24T04:10:33.443Z,3.80
2023-02-24T04:11:33.426Z,3.78
2023-02-24T04:12:33.432Z,3.80
2023-02-24T04:13:33.399Z,3.81
2023-02-24T04:14:33.387Z,3.80
2023-02-24T04:15:33.430Z,3.80
2023-02-24T04:16:33.402Z,3.80
2023-02-24T04:17:33.387Z,3.82
2023-02-24T04:18:33.350Z,3.82
2023-02-24T04:19:33.311Z,3.84
2023-02-24T04:20:33.300Z,3.81
2023-02-24T04:21:33.355Z,3.84
2023-02-24T04:22:33.329Z,3.81
2023-02-24T04:23:33.324Z,3.81
2023-02-24T04:24:33.244Z,3.82
2023-02-24T04:25:33.240Z,3.82
2023-02-24T04:26:35.401Z,3.80
2023-02-24T04:27:33.218Z,3.80
2023-02-24T04:28:33.183Z,3.80
2023-02-24T04:29:33.191Z,3.78
2023-02-24T04:30:33.313Z,3.77
2023-02-24T04:31:33.314Z,3.75
2023-02-24T04:32:34.016Z,3.78
2023-02-24T04:33:33.145Z,3.82
2023-02-24T04:34:33.109Z,3.80
2023-02-24T04:35:33.118Z,3.81
2023-02-24T04:36:33.128Z,3.84
2023-02-24T04:37:33.109Z,3.82
2023-02-24T04:38:33.118Z,3.82
2023-02-24T04:39:33.085Z,3.82
2023-02-24T04:40:33.060Z,3.81
2023-02-24T04:41:33.045Z,3.80
2023-02-24T04:42:33.032Z,3.78
2023-02-24T04:43:33.037Z,3.80
2023-02-24T04:44:33.000Z,3.77
2023-02-24T04:45:33.007Z,3.77
2023-02-24T04:46:33.037Z,3.78
2023-02-24T04:47:32.976Z,3.80
2023-02-24T04:48:32.951Z,3.80
2023-02-24T04:49:32.944Z,3.81
2023-02-24T04:50:32.930Z,3.78
2023-02-24T04:51:32.932Z,3.78
2023-02-24T04:52:32.918Z,3.74
2023-02-24T04:53:32.966Z,3.72
2023-02-24T04:54:32.871Z,3.72
2023-02-24T04:55:32.928Z,3.72
2023-02-24T04:56:32.891Z,3.72
2023-02-24T04:57:32.853Z,3.74
2023-02-24T04:58:32.822Z,3.75
2023-02-24T04:59:32.834Z,3.72
2023-02-24T05:00:32.803Z,3.72
2023-02-24T05:01:32.835Z,3.70
2023-02-24T05:02:32.792Z,3.68
2023-02-24T05:03:32.838Z,3.71
2023-02-24T05:04:32.775Z,3.70
2023-02-24T05:05:32.744Z,3.70
2023-02-24T05:06:32.753Z,3.68
2023-02-24T05:07:32.721Z,3.67
2023-02-24T05:08:32.709Z,3.70
2023-02-24T05:09:32.723Z,3.68
2023-02-24T05:10:32.679Z,3.67
2023-02-24T05:11:32.746Z,3.68
2023-02-24T05:12:32.648Z,3.72
2023-02-24T05:13:32.672Z,3.74
2023-02-24T05:14:32.633Z,3.72
2023-02-24T05:15:32.629Z,3.70
2023-02-24T05:16:33.025Z,3.71
2023-02-24T05:17:32.628Z,3.71
2023-02-24T05:18:32.580Z,3.72
2023-02-24T05:19:32.553Z,3.72
2023-02-24T05:20:32.628Z,3.72
2023-02-24T05:21:32.554Z,3.71
2023-02-24T05:22:32.541Z,3.71
2023-02-24T05:23:32.523Z,3.74
2023-02-24T05:24:32.510Z,3.72
2023-02-24T05:25:32.491Z,3.74
2023-02-24T05:26:32.484Z,3.75
2023-02-24T05:27:32.477Z,3.75
2023-02-24T05:28:32.464Z,3.77
2023-02-24T05:29:32.462Z,3.77
2023-02-24T05:30:32.469Z,3.81
2023-02-24T05:31:32.541Z,3.80
2023-02-24T05:32:32.528Z,3.77
2023-02-24T05:33:32.418Z,3.75
2023-02-24T05:34:32.380Z,3.74
2023-02-24T05:35:32.394Z,3.77
2023-02-24T05:36:32.366Z,3.75
2023-02-24T05:37:32.342Z,3.77
2023-02-24T05:38:32.451Z,3.80
2023-02-24T05:39:32.413Z,3.80
2023-02-24T05:40:32.345Z,3.82
2023-02-24T05:41:32.356Z,3.82
2023-02-24T05:42:32.302Z,3.81
2023-02-24T05:43:33.441Z,3.81
2023-02-24T05:44:32.209Z,3.75
2023-02-24T05:45:32.255Z,3.75
2023-02-24T05:46:32.314Z,3.77
2023-02-24T05:47:32.545Z,3.75
2023-02-24T05:48:32.206Z,3.77
2023-02-24T05:49:32.215Z,3.74
2023-02-24T05:50:33.044Z,3.75
2023-02-24T05:51:32.389Z,3.72
2023-02-24T05:52:32.170Z,3.72
2023-02-24T05:53:32.155Z,3.75
2023-02-24T05:54:32.155Z,3.77
2023-02-24T05:55:32.109Z,3.78
2023-02-24T05:56:32.084Z,3.77
2023-02-24T05:57:32.128Z,3.75
2023-02-24T05:58:32.054Z,3.75
2023-02-24T05:59:32.064Z,3.80
2023-02-24T06:00:32.095Z,3.75
2023-02-24T06:01:32.053Z,3.77
2023-02-24T06:02:32.005Z,3.77
2023-02-24T06:03:32.071Z,3.75
2023-02-24T06:04:31.988Z,3.75
2023-02-24T06:05:32.007Z,3.75
2023-02-24T06:06:31.984Z,3.77
2023-02-24T06:07:31.962Z,3.74
2023-02-24T06:08:31.933Z,3.74
2023-02-24T06:09:32.010Z,3.75
2023-02-24T06:10:31.928Z,3.75
2023-02-24T06:11:32.033Z,3.75
2023-02-24T06:12:31.895Z,3.77
2023-02-24T06:13:32.469Z,3.77
2023-02-24T06:14:31.946Z,3.77
2023-02-24T06:15:31.877Z,3.82
2023-02-24T06:16:32.632Z,3.88
2023-02-24T06:17:31.968Z,3.89
2023-02-24T06:18:31.802Z,3.98
2023-02-24T06:19:31.814Z,4.07
2023-02-24T06:20:31.803Z,4.14
2023-02-24T06:21:31.840Z,4.10
2023-02-24T06:22:31.809Z,4.02
2023-02-24T06:23:31.758Z,3.98
2023-02-24T06:24:31.793Z,3.90
2023-02-24T06:25:31.742Z,3.90
2023-02-24T06:26:31.867Z,3.89
2023-02-24T06:27:31.725Z,3.88
2023-02-24T06:28:31.672Z,3.80
2023-02-24T06:29:32.060Z,3.78
2023-02-24T06:30:32.118Z,3.80
2023-02-24T06:31:31.695Z,3.80
2023-02-24T06:32:31.809Z,3.82
2023-02-24T06:33:31.651Z,3.82
2023-02-24T06:34:31.632Z,3.81
2023-02-24T06:35:32.366Z,3.82
2023-02-24T06:36:32.339Z,3.82
2023-02-24T06:37:31.626Z,3.84
2023-02-24T06:38:31.575Z,3.86
2023-02-24T06:39:31.599Z,3.86
2023-02-24T06:40:31.608Z,3.89
2023-02-24T06:41:31.668Z,3.88
2023-02-24T06:42:31.709Z,3.88
2023-02-24T06:43:31.660Z,3.90
2023-02-24T06:44:31.522Z,3.88
2023-02-24T06:45:31.510Z,3.89
2023-02-24T06:46:31.792Z,3.89
2023-02-24T06:47:31.534Z,3.92
2023-02-24T06:48:31.448Z,3.93
2023-02-24T06:49:32.000Z,3.99
2023-02-24T06:50:31.437Z,3.93
2023-02-24T06:51:31.427Z,3.95
2023-02-24T06:52:32.126Z,3.96
2023-02-24T06:53:31.617Z,3.95
2023-02-24T06:54:31.784Z,3.96
2023-02-24T06:55:31.439Z,3.98
2023-02-24T06:56:32.633Z,3.96
2023-02-24T06:57:31.364Z,3.96
2023-02-24T06:58:31.373Z,3.99
2023-02-24T06:59:31.333Z,3.96
2023-02-24T07:00:31.299Z,3.95
2023-02-24T07:01:32.279Z,3.99
2023-02-24T07:02:31.276Z,3.99
2023-02-24T07:03:31.282Z,4.00
2023-02-24T07:04:31.649Z,4.02
2023-02-24T07:05:31.272Z,4.00
2023-02-24T07:06:32.300Z,4.02
2023-02-24T07:07:31.225Z,4.07
2023-02-24T07:08:31.294Z,4.11
2023-02-24T07:09:31.471Z,4.13
2023-02-24T07:10:31.343Z,4.14
2023-02-24T07:11:31.168Z,4.14
2023-02-24T07:12:32.373Z,4.16
2023-02-24T07:13:32.182Z,4.16
2023-02-24T07:14:31.137Z,4.11
2023-02-24T07:15:31.128Z,4.11
2023-02-24T07:16:31.200Z,4.10
2023-02-24T07:17:31.119Z,4.06
2023-02-24T07:18:31.103Z,4.02
2023-02-24T07:19:31.106Z,3.96
2023-02-24T07:20:31.054Z,3.99
2023-02-24T07:21:31.112Z,3.99
2023-02-24T07:22:31.091Z,3.99
2023-02-24T07:23:31.053Z,4.06
2023-02-24T07:24:31.101Z,4.06
2023-02-24T07:25:31.125Z,4.08
2023-02-24T07:26:30.992Z,4.06
2023-02-24T07:27:30.984Z,4.04
2023-02-24T07:28:31.122Z,4.06
2023-02-24T07:29:30.986Z,4.04
2023-02-24T07:30:31.519Z,4.00
2023-02-24T07:31:31.406Z,3.98
2023-02-24T07:32:32.362Z,3.98
2023-02-24T07:33:31.365Z,3.95
2023-02-24T07:34:30.875Z,3.93
2023-02-24T07:35:30.927Z,3.95
2023-02-24T07:36:30.845Z,3.98
2023-02-24T07:37:31.213Z,3.92
2023-02-24T07:38:31.320Z,3.93
2023-02-24T07:39:30.790Z,3.95
2023-02-24T07:40:31.583Z,3.98
2023-02-24T07:41:31.836Z,3.98
2023-02-24T07:42:31.839Z,3.99
2023-02-24T07:43:31.786Z,4.02
2023-02-24T07:44:31.159Z,4.06
2023-02-24T07:45:31.659Z,4.07
2023-02-24T07:46:31.394Z,4.06
2023-02-24T07:47:30.955Z,4.04
2023-02-24T07:48:31.120Z,4.06
2023-02-24T07:49:30.678Z,4.07
2023-02-24T07:50:30.697Z,4.06
2023-02-24T07:51:30.791Z,4.06
2023-02-24T07:52:30.796Z,4.08
2023-02-24T07:53:30.613Z,4.11
2023-02-24T07:54:30.673Z,4.14
2023-02-24T07:55:30.623Z,4.18
2023-02-24T07:56:31.008Z,4.20
2023-02-24T07:57:30.572Z,4.25
2023-02-24T07:58:32.024Z,4.26
2023-02-24T07:59:30.536Z,4.24
2023-02-24T08:00:31.544Z,4.25
2023-02-24T08:01:31.213Z,4.29
2023-02-24T08:02:31.296Z,4.28
2023-02-24T08:03:30.486Z,4.28
2023-02-24T08:04:30.768Z,4.28
2023-02-24T08:05:30.558Z,4.28
2023-02-24T08:06:30.658Z,4.29
2023-02-24T08:07:30.474Z,4.26
2023-02-24T08:08:30.442Z,4.28
2023-02-24T08:09:30.524Z,4.34
2023-02-24T08:10:30.445Z,4.36
2023-02-24T08:11:31.300Z,4.39
2023-02-24T08:12:31.573Z,4.44
2023-02-24T08:13:31.470Z,4.50
2023-02-24T08:14:30.798Z,4.53
2023-02-24T08:15:31.495Z,4.57
2023-02-24T08:16:30.355Z,4.56
2023-02-24T08:17:31.767Z,4.53
2023-02-24T08:18:31.449Z,4.53
2023-02-24T08:19:30.843Z,4.47
2023-02-24T08:20:30.349Z,4.47
2023-02-24T08:21:30.256Z,4.46
2023-02-24T08:22:30.251Z,4.42
2023-02-24T08:23:30.270Z,4.39
2023-02-24T08:24:30.323Z,4.39
2023-02-24T08:25:30.301Z,4.42
2023-02-24T08:26:30.277Z,4.38
2023-02-24T08:27:30.373Z,4.42
2023-02-24T08:28:30.300Z,4.43
2023-02-24T08:29:30.398Z,4.46
2023-02-24T08:30:30.464Z,4.50
2023-02-24T08:31:30.563Z,4.62
2023-02-24T08:32:30.420Z,4.59
2023-02-24T08:33:30.579Z,4.54
2023-02-24T08:34:30.138Z,4.56
2023-02-24T08:35:30.525Z,4.57
2023-02-24T08:36:30.655Z,4.61
2023-02-24T08:37:30.239Z,4.64
2023-02-24T08:38:30.085Z,4.67
2023-02-24T08:39:30.686Z,4.68
2023-02-24T08:40:30.727Z,4.69
2023-02-24T08:41:30.801Z,4.72
2023-02-24T08:42:30.809Z,4.72
2023-02-24T08:43:30.157Z,4.74
2023-02-24T08:44:30.166Z,4.77
2023-02-24T08:45:30.905Z,4.75
2023-02-24T08:46:30.692Z,4.79
2023-02-24T08:47:30.813Z,4.80
2023-02-24T08:48:29.943Z,4.80
2023-02-24T08:49:31.065Z,4.83
2023-02-24T08:50:31.000Z,4.80
2023-02-24T08:51:30.927Z,4.86
2023-02-24T08:52:32.229Z,4.88
2023-02-24T08:53:30.720Z,4.88
2023-02-24T08:54:31.116Z,4.80
2023-02-24T08:55:30.822Z,4.83
2023-02-24T08:56:30.949Z,4.84
2023-02-24T08:57:30.173Z,4.91
2023-02-24T08:58:30.771Z,4.90
2023-02-24T08:59:29.827Z,4.87
2023-02-24T09:00:29.871Z,4.88
2023-02-24T09:01:29.866Z,4.88
2023-02-24T09:02:29.815Z,4.91
2023-02-24T09:03:30.060Z,4.91
2023-02-24T09:04:29.919Z,4.96
2023-02-24T09:05:29.872Z,4.96
2023-02-24T09:06:29.721Z,4.94
2023-02-24T09:07:30.101Z,4.96
2023-02-24T09:08:30.172Z,5.01
2023-02-24T09:09:36.710Z,5.05
2023-02-24T09:10:30.216Z,5.08
2023-02-24T09:11:29.634Z,5.12
2023-02-24T09:12:30.308Z,5.19
2023-02-24T09:13:30.344Z,5.15
2023-02-24T09:14:30.085Z,5.08
2023-02-24T09:15:29.703Z,5.04
2023-02-24T09:16:30.573Z,4.97
2023-02-24T09:17:30.943Z,4.91
2023-02-24T09:18:29.934Z,4.93
2023-02-24T09:19:29.987Z,4.93
2023-02-24T09:20:29.547Z,4.99
2023-02-24T09:21:29.672Z,4.99
2023-02-24T09:22:29.506Z,4.99
2023-02-24T09:23:29.490Z,5.02
2023-02-24T09:24:29.504Z,5.02
2023-02-24T09:25:29.599Z,5.02
2023-02-24T09:26:30.911Z,4.99
2023-02-24T09:27:29.536Z,4.96
2023-02-24T09:28:29.480Z,5.01
2023-02-24T09:29:29.576Z,4.99
2023-02-24T09:30:29.685Z,5.02
2023-02-24T09:31:29.814Z,5.04
2023-02-24T09:32:29.848Z,5.01
2023-02-24T09:33:29.359Z,5.01
2023-02-24T09:34:29.362Z,5.04
2023-02-24T09:35:29.415Z,4.99
2023-02-24T09:36:29.368Z,4.99
2023-02-24T09:37:29.295Z,4.99
2023-02-24T09:38:29.451Z,5.05
2023-02-24T09:39:29.940Z,5.06
2023-02-24T09:40:29.538Z,5.11
2023-02-24T09:41:29.461Z,5.09
2023-02-24T09:42:30.717Z,5.09
2023-02-24T09:43:29.688Z,5.09
2023-02-24T09:44:29.240Z,5.09
2023-02-24T09:45:29.948Z,5.11
2023-02-24T09:46:29.946Z,5.14
2023-02-24T09:47:29.860Z,5.12
2023-02-24T09:48:29.900Z,5.11
2023-02-24T09:49:29.958Z,5.12
2023-02-24T09:50:59.133Z,5.11
2023-02-24T09:51:30.135Z,5.17
2023-02-24T09:52:29.316Z,5.15
2023-02-24T09:53:29.123Z,5.17
2023-02-24T09:54:29.962Z,5.22
2023-02-24T09:55:29.285Z,5.24
2023-02-24T09:56:30.136Z,5.29
2023-02-24T09:57:30.220Z,5.27
2023-02-24T09:58:43.096Z,5.29
2023-02-24T09:59:30.381Z,5.30
2023-02-24T10:00:29.915Z,5.29
2023-02-24T10:01:29.881Z,5.30
2023-02-24T10:02:29.100Z,5.32
2023-02-24T10:03:29.359Z,5.37
2023-02-24T10:04:29.921Z,5.37
2023-02-24T10:05:29.935Z,5.38
2023-02-24T10:06:29.846Z,5.38
2023-02-24T10:07:29.228Z,5.35
2023-02-24T10:08:30.157Z,5.38
2023-02-24T10:09:29.553Z,5.42
2023-02-24T10:10:28.902Z,5.44
2023-02-24T10:11:28.924Z,5.41
2023-02-24T10:12:28.965Z,5.32
2023-02-24T10:13:29.016Z,5.32
2023-02-24T10:14:37.837Z,5.33
2023-02-24T10:15:31.032Z,5.41
2023-02-24T10:16:29.130Z,5.47
2023-02-24T10:17:29.217Z,5.48
2023-02-24T10:18:29.217Z,5.51
2023-02-24T10:19:28.761Z,5.52
2023-02-24T10:20:30.202Z,5.51
2023-02-24T10:21:28.727Z,5.58
2023-02-24T10:22:28.734Z,5.60
2023-02-24T10:23:28.812Z,5.59
2023-02-24T10:24:28.738Z,5.58
2023-02-24T10:25:28.776Z,5.58
2023-02-24T10:26:28.679Z,5.62
2023-02-24T10:27:28.744Z,5.65
2023-02-24T10:28:30.106Z,5.63
2023-02-24T10:29:28.800Z,5.60
2023-02-24T10:30:28.968Z,5.56
2023-02-24T10:31:28.785Z,5.52
2023-02-24T10:32:29.102Z,5.52
2023-02-24T10:33:28.956Z,5.52
2023-02-24T10:34:28.653Z,5.49
2023-02-24T10:35:28.897Z,5.52
2023-02-24T10:36:29.072Z,5.59
2023-02-24T10:37:29.737Z,5.67
2023-02-24T10:38:29.148Z,5.70
2023-02-24T10:39:29.186Z,5.73
2023-02-24T10:40:28.806Z,5.73
2023-02-24T10:41:29.290Z,5.66
2023-02-24T10:42:29.297Z,5.58
2023-02-24T10:43:29.354Z,5.55
2023-02-24T10:44:29.895Z,5.49
2023-02-24T10:45:28.643Z,5.47
2023-02-24T10:46:40.239Z,5.48
2023-02-24T10:47:29.490Z,5.52
2023-02-24T10:48:43.353Z,5.60
2023-02-24T10:49:29.477Z,5.55
2023-02-24T10:50:31.045Z,5.59
2023-02-24T10:51:28.675Z,5.59
2023-02-24T10:52:28.716Z,5.58
2023-02-24T10:53:28.754Z,5.48
2023-02-24T10:54:28.788Z,5.42
2023-02-24T10:55:28.523Z,5.45
2023-02-24T10:56:29.933Z,5.48
2023-02-24T10:57:28.284Z,5.44
2023-02-24T10:58:28.364Z,5.42
2023-02-24T10:59:28.301Z,5.44
2023-02-24T11:00:28.272Z,5.33
2023-02-24T11:01:28.564Z,5.22
2023-02-24T11:02:28.590Z,5.15
2023-02-24T11:03:32.967Z,5.09
2023-02-24T11:04:28.962Z,5.08
2023-02-24T11:05:29.061Z,5.06
2023-02-24T11:06:29.183Z,5.06
2023-02-24T11:07:29.309Z,5.04
2023-02-24T11:08:29.005Z,5.05
2023-02-24T11:09:28.519Z,4.96
2023-02-24T11:10:29.341Z,4.83
2023-02-24T11:11:28.054Z,4.75
2023-02-24T11:12:28.063Z,4.67
2023-02-24T11:13:28.042Z,4.65
2023-02-24T11:14:28.656Z,4.61
2023-02-24T11:15:28.311Z,4.49
2023-02-24T11:16:28.063Z,4.36
2023-02-24T11:17:28.173Z,4.29
2023-02-24T11:18:27.993Z,4.21
2023-02-24T11:19:28.009Z,4.07
2023-02-24T11:20:36.313Z,4.00
2023-02-24T11:21:29.801Z,3.96
2023-02-24T11:22:27.944Z,3.89
2023-02-24T11:23:27.915Z,3.84
2023-02-24T11:24:27.900Z,3.81
2023-02-24T11:25:27.933Z,3.80
2023-02-24T11:26:27.873Z,3.75
2023-02-24T11:27:27.963Z,3.71
2023-02-24T11:28:28.069Z,3.68
2023-02-24T11:29:27.996Z,3.64
2023-02-24T11:30:27.861Z,3.63
2023-02-24T11:31:28.310Z,3.62
2023-02-24T11:32:28.151Z,3.62
2023-02-24T11:33:27.780Z,3.60
2023-02-24T11:34:29.079Z,3.56
2023-02-24T11:35:27.758Z,3.52
2023-02-24T11:36:27.966Z,3.50
2023-02-24T11:37:27.974Z,3.41
2023-02-24T11:38:27.986Z,3.37
2023-02-24T11:39:27.716Z,3.41
2023-02-24T11:40:27.701Z,3.39
2023-02-24T11:41:27.687Z,3.37
2023-02-24T11:42:27.679Z,3.35
2023-02-24T11:43:27.670Z,3.35
2023-02-24T11:44:27.655Z,3.39
2023-02-24T11:45:27.647Z,3.39
2023-02-24T11:46:27.660Z,3.34
2023-02-24T11:47:27.611Z,3.33
2023-02-24T11:48:27.594Z,3.31
2023-02-24T11:49:27.669Z,3.28
2023-02-24T11:50:27.577Z,3.30
2023-02-24T11:51:27.585Z,3.31
2023-02-24T11:52:27.542Z,3.28
2023-02-24T11:53:27.645Z,3.30
2023-02-24T11:54:27.522Z,3.26
2023-02-24T11:55:28.311Z,3.22
2023-02-24T11:56:28.162Z,3.25
2023-02-24T11:57:27.517Z,3.30
2023-02-24T11:58:27.504Z,3.28
2023-02-24T11:59:28.407Z,3.26
2023-02-24T12:00:27.486Z,3.25
2023-02-24T12:01:27.929Z,3.28
2023-02-24T12:02:27.459Z,3.22
2023-02-24T12:03:27.426Z,3.20
2023-02-24T12:04:27.396Z,3.16
2023-02-24T12:05:27.417Z,3.22
2023-02-24T12:06:27.645Z,3.26
2023-02-24T12:07:27.385Z,3.23
2023-02-24T12:08:27.348Z,3.23
2023-02-24T12:09:27.720Z,3.28
2023-02-24T12:10:27.448Z,3.31
2023-02-24T12:11:28.207Z,3.28
2023-02-24T12:12:27.323Z,3.22
2023-02-24T12:13:27.692Z,3.25
2023-02-24T12:14:27.692Z,3.25
2023-02-24T12:15:27.388Z,3.33
2023-02-24T12:16:27.740Z,3.33
2023-02-24T12:17:27.304Z,3.33
2023-02-24T12:18:27.220Z,3.31
2023-02-24T12:19:27.546Z,3.31
2023-02-24T12:20:27.545Z,3.28
2023-02-24T12:21:27.174Z,3.28
2023-02-24T12:22:27.208Z,3.28
2023-02-24T12:23:27.252Z,3.26
2023-02-24T12:24:27.136Z,3.23
2023-02-24T12:25:27.130Z,3.23
2023-02-24T12:26:27.097Z,3.22
2023-02-24T12:27:27.148Z,3.23
2023-02-24T12:28:27.075Z,3.22
2023-02-24T12:29:27.086Z,3.25
2023-02-24T12:30:27.082Z,3.25
2023-02-24T12:31:27.578Z,3.23
2023-02-24T12:32:27.176Z,3.28
2023-02-24T12:33:27.030Z,3.28
2023-02-24T12:34:27.008Z,3.23
2023-02-24T12:35:26.992Z,3.23
2023-02-24T12:36:28.735Z,3.23
2023-02-24T12:37:26.983Z,3.22
2023-02-24T12:38:26.958Z,3.16
2023-02-24T12:39:26.971Z,3.15
2023-02-24T12:40:26.962Z,3.15
2023-02-24T12:41:26.919Z,3.19
2023-02-24T12:42:26.900Z,3.15
2023-02-24T12:43:26.905Z,3.16
2023-02-24T12:44:26.890Z,3.19
2023-02-24T12:45:26.877Z,3.25
2023-02-24T12:46:26.867Z,3.26
2023-02-24T12:47:26.834Z,3.25
2023-02-24T12:48:26.846Z,3.23
2023-02-24T12:49:26.883Z,3.22
2023-02-24T12:50:26.797Z,3.16
2023-02-24T12:51:26.790Z,3.16
2023-02-24T12:52:27.031Z,3.19
2023-02-24T12:53:26.765Z,3.19
2023-02-24T12:54:26.751Z,3.19
2023-02-24T12:55:26.745Z,3.13
2023-02-24T12:56:26.731Z,3.13
2023-02-24T12:57:26.712Z,3.13
2023-02-24T12:58:26.716Z,3.15
2023-02-24T12:59:26.684Z,3.16
2023-02-24T13:00:26.746Z,3.17
2023-02-24T13:01:26.722Z,3.20
2023-02-24T13:02:26.668Z,3.22
2023-02-24T13:03:26.658Z,3.20
2023-02-24T13:04:26.626Z,3.17
2023-02-24T13:05:26.640Z,3.16
2023-02-24T13:06:26.598Z,3.13
2023-02-24T13:07:26.603Z,3.13
2023-02-24T13:08:26.578Z,3.05
2023-02-24T13:09:26.648Z,3.07
2023-02-24T13:10:26.587Z,3.07
2023-02-24T13:11:26.565Z,3.04
2023-02-24T13:12:26.535Z,3.04
2023-02-24T13:13:26.752Z,3.07
2023-02-24T13:14:26.527Z,3.10
2023-02-24T13:15:26.513Z,3.10
2023-02-24T13:16:26.481Z,3.07
2023-02-24T13:17:26.480Z,3.05
2023-02-24T13:18:26.443Z,3.05